Disclaimer

Please do not use the information listed here in-flight or in-navigation, as they are not provided to us by the airports but are provided by volunteers, so they might be outdated.

Search


Regions


Airport information page

Radio informations:
Tower (TWR) - 118.1 MHz
Ground (GND) - 121.8 MHz
Clearance delivery - 122.075 MHz
OKINAWA APP/DEP - SEEREMAR MHz

Airport informations:
Latitude: 26° 11' 44.93" N
Longitude: 127° 38' 45.13" E
Elevation: 12 feet - 4 meters
Operating hours: N/A
Operating agency: Civil government, landing fees and diplomatic clearance may be required
Timezone: UTC+9
Fuel: JP-4, Wide cut turbine fuel MIL Spec T-5624

Runway information:
18/36 - 9840 x 150 feet< - >2999 x 46 meters

Recent METARs:
ROAH 182300Z 35013KT 9999 SCT020 BKN090 24/20 Q1015 RMK 3CU020 6AC090 A2997
ROAH 182330Z 35013KT 9999 FEW020 SCT090 BKN150 25/19 Q1015 RMK 2CU020 3AC090 5AC150 A2998
ROAH 190000Z 36013KT 9999 FEW020 SCT045 BKN150 25/20 Q1015 RMK 2CU020 3SC045 5AC150 A2998

Airport on the map: